sensor_id;sensor_type;location;lat;lon;timestamp;P1;durP1;ratioP1;P2;durP2;ratioP2
78664;SDS011;67981;51.022;-2.870;2023-11-19T00:01:52;21.60;;;5.32;;
78664;SDS011;67981;51.022;-2.870;2023-11-19T00:04:18;21.95;;;5.95;;
78664;SDS011;67981;51.022;-2.870;2023-11-19T00:06:44;21.73;;;6.25;;
78664;SDS011;67981;51.022;-2.870;2023-11-19T00:09:09;17.17;;;7.83;;
78664;SDS011;67981;51.022;-2.870;2023-11-19T00:11:34;29.23;;;12.27;;
78664;SDS011;67981;51.022;-2.870;2023-11-19T00:14:00;24.13;;;11.05;;
78664;SDS011;67981;51.022;-2.870;2023-11-19T00:16:25;26.77;;;7.72;;
78664;SDS011;67981;51.022;-2.870;2023-11-19T00:18:50;29.05;;;10.63;;
78664;SDS011;67981;51.022;-2.870;2023-11-19T00:21:16;23.10;;;7.43;;
78664;SDS011;67981;51.022;-2.870;2023-11-19T00:23:41;22.10;;;6.30;;
78664;SDS011;67981;51.022;-2.870;2023-11-19T00:26:06;16.02;;;6.55;;
78664;SDS011;67981;51.022;-2.870;2023-11-19T00:28:32;24.27;;;6.18;;
78664;SDS011;67981;51.022;-2.870;2023-11-19T00:30:59;21.77;;;5.90;;
78664;SDS011;67981;51.022;-2.870;2023-11-19T00:33:24;24.83;;;7.23;;
78664;SDS011;67981;51.022;-2.870;2023-11-19T00:35:49;20.60;;;6.78;;
78664;SDS011;67981;51.022;-2.870;2023-11-19T00:38:15;25.80;;;6.95;;
78664;SDS011;67981;51.022;-2.870;2023-11-19T00:40:41;20.13;;;5.97;;
78664;SDS011;67981;51.022;-2.870;2023-11-19T00:43:06;12.18;;;4.75;;
78664;SDS011;67981;51.022;-2.870;2023-11-19T00:45:32;18.63;;;4.30;;
78664;SDS011;67981;51.022;-2.870;2023-11-19T00:47:58;15.85;;;4.95;;
78664;SDS011;67981;51.022;-2.870;2023-11-19T00:50:24;12.70;;;4.20;;
78664;SDS011;67981;51.022;-2.870;2023-11-19T00:52:50;22.17;;;4.30;;
78664;SDS011;67981;51.022;-2.870;2023-11-19T00:55:16;23.23;;;4.22;;
78664;SDS011;67981;51.022;-2.870;2023-11-19T00:57:42;23.38;;;4.43;;
78664;SDS011;67981;51.022;-2.870;2023-11-19T01:00:07;20.45;;;4.30;;
78664;SDS011;67981;51.022;-2.870;2023-11-19T01:02:42;19.67;;;5.75;;
78664;SDS011;67981;51.022;-2.870;2023-11-19T01:05:08;19.55;;;3.65;;
78664;SDS011;67981;51.022;-2.870;2023-11-19T01:07:34;18.38;;;5.22;;
78664;SDS011;67981;51.022;-2.870;2023-11-19T01:09:59;20.33;;;3.97;;
78664;SDS011;67981;51.022;-2.870;2023-11-19T01:12:24;17.23;;;3.27;;
78664;SDS011;67981;51.022;-2.870;2023-11-19T01:14:50;15.68;;;4.95;;
78664;SDS011;67981;51.022;-2.870;2023-11-19T01:17:15;18.70;;;4.20;;
78664;SDS011;67981;51.022;-2.870;2023-11-19T01:19:41;18.23;;;4.40;;
78664;SDS011;67981;51.022;-2.870;2023-11-19T01:22:06;17.00;;;3.35;;
78664;SDS011;67981;51.022;-2.870;2023-11-19T01:24:32;18.33;;;4.13;;
78664;SDS011;67981;51.022;-2.870;2023-11-19T01:26:57;15.77;;;3.58;;
78664;SDS011;67981;51.022;-2.870;2023-11-19T01:29:24;20.23;;;4.00;;
78664;SDS011;67981;51.022;-2.870;2023-11-19T01:31:50;22.33;;;4.35;;
78664;SDS011;67981;51.022;-2.870;2023-11-19T01:34:18;18.67;;;4.90;;
78664;SDS011;67981;51.022;-2.870;2023-11-19T01:36:43;15.85;;;4.20;;
78664;SDS011;67981;51.022;-2.870;2023-11-19T01:39:09;15.50;;;3.28;;
78664;SDS011;67981;51.022;-2.870;2023-11-19T01:41:37;13.90;;;4.35;;
78664;SDS011;67981;51.022;-2.870;2023-11-19T01:44:05;21.42;;;5.07;;
78664;SDS011;67981;51.022;-2.870;2023-11-19T01:46:31;20.50;;;6.13;;
78664;SDS011;67981;51.022;-2.870;2023-11-19T01:49:00;16.60;;;3.67;;
78664;SDS011;67981;51.022;-2.870;2023-11-19T01:51:27;21.05;;;4.43;;
78664;SDS011;67981;51.022;-2.870;2023-11-19T01:53:53;13.95;;;3.33;;
78664;SDS011;67981;51.022;-2.870;2023-11-19T01:56:20;20.55;;;5.47;;
78664;SDS011;67981;51.022;-2.870;2023-11-19T01:58:47;12.00;;;3.13;;
78664;SDS011;67981;51.022;-2.870;2023-11-19T02:01:14;12.98;;;3.85;;
78664;SDS011;67981;51.022;-2.870;2023-11-19T02:03:40;12.45;;;4.45;;
78664;SDS011;67981;51.022;-2.870;2023-11-19T02:06:06;21.45;;;4.45;;
78664;SDS011;67981;51.022;-2.870;2023-11-19T02:08:32;13.10;;;3.75;;
78664;SDS011;67981;51.022;-2.870;2023-11-19T02:10:57;14.02;;;3.55;;
78664;SDS011;67981;51.022;-2.870;2023-11-19T02:13:26;17.90;;;4.35;;
78664;SDS011;67981;51.022;-2.870;2023-11-19T02:15:53;20.83;;;5.05;;
78664;SDS011;67981;51.022;-2.870;2023-11-19T02:20:52;15.60;;;3.40;;
78664;SDS011;67981;51.022;-2.870;2023-11-19T02:23:18;25.40;;;4.35;;
78664;SDS011;67981;51.022;-2.870;2023-11-19T02:28:34;11.70;;;3.22;;
78664;SDS011;67981;51.022;-2.870;2023-11-19T02:31:03;15.95;;;4.25;;
78664;SDS011;67981;51.022;-2.870;2023-11-19T02:33:35;10.75;;;2.08;;
78664;SDS011;67981;51.022;-2.870;2023-11-19T02:36:02;19.65;;;3.72;;
78664;SDS011;67981;51.022;-2.870;2023-11-19T02:38:29;16.30;;;3.72;;
78664;SDS011;67981;51.022;-2.870;2023-11-19T02:40:55;12.68;;;2.78;;
78664;SDS011;67981;51.022;-2.870;2023-11-19T02:43:21;15.05;;;4.03;;
78664;SDS011;67981;51.022;-2.870;2023-11-19T02:45:47;17.15;;;4.20;;
78664;SDS011;67981;51.022;-2.870;2023-11-19T02:48:12;18.03;;;3.40;;
78664;SDS011;67981;51.022;-2.870;2023-11-19T02:50:39;18.95;;;4.43;;
78664;SDS011;67981;51.022;-2.870;2023-11-19T02:53:04;12.45;;;3.55;;
78664;SDS011;67981;51.022;-2.870;2023-11-19T02:55:31;12.48;;;3.95;;
78664;SDS011;67981;51.022;-2.870;2023-11-19T02:58:02;16.77;;;5.15;;
78664;SDS011;67981;51.022;-2.870;2023-11-19T03:00:33;18.50;;;3.67;;
78664;SDS011;67981;51.022;-2.870;2023-11-19T03:03:02;11.95;;;3.38;;
78664;SDS011;67981;51.022;-2.870;2023-11-19T03:05:42;20.73;;;4.13;;
78664;SDS011;67981;51.022;-2.870;2023-11-19T03:08:09;15.95;;;3.10;;
78664;SDS011;67981;51.022;-2.870;2023-11-19T03:10:35;13.27;;;4.18;;
78664;SDS011;67981;51.022;-2.870;2023-11-19T03:13:00;16.67;;;4.50;;
78664;SDS011;67981;51.022;-2.870;2023-11-19T03:15:27;14.20;;;4.25;;
78664;SDS011;67981;51.022;-2.870;2023-11-19T03:17:53;15.40;;;3.97;;
78664;SDS011;67981;51.022;-2.870;2023-11-19T03:20:19;14.10;;;2.83;;
78664;SDS011;67981;51.022;-2.870;2023-11-19T03:22:45;10.77;;;3.22;;
78664;SDS011;67981;51.022;-2.870;2023-11-19T03:25:11;18.73;;;4.78;;
78664;SDS011;67981;51.022;-2.870;2023-11-19T03:27:40;17.88;;;4.05;;
78664;SDS011;67981;51.022;-2.870;2023-11-19T03:30:07;17.80;;;3.58;;
78664;SDS011;67981;51.022;-2.870;2023-11-19T03:32:34;16.05;;;5.70;;
78664;SDS011;67981;51.022;-2.870;2023-11-19T03:35:00;15.27;;;3.80;;
78664;SDS011;67981;51.022;-2.870;2023-11-19T03:37:26;18.35;;;4.03;;
78664;SDS011;67981;51.022;-2.870;2023-11-19T03:39:53;21.55;;;3.63;;
78664;SDS011;67981;51.022;-2.870;2023-11-19T03:42:19;21.13;;;3.95;;
78664;SDS011;67981;51.022;-2.870;2023-11-19T03:44:45;11.02;;;3.38;;
78664;SDS011;67981;51.022;-2.870;2023-11-19T03:47:11;16.40;;;5.03;;
78664;SDS011;67981;51.022;-2.870;2023-11-19T03:49:36;18.45;;;4.25;;
78664;SDS011;67981;51.022;-2.870;2023-11-19T03:52:02;17.98;;;3.47;;
78664;SDS011;67981;51.022;-2.870;2023-11-19T03:54:27;13.10;;;4.13;;
78664;SDS011;67981;51.022;-2.870;2023-11-19T03:56:53;15.45;;;3.40;;
78664;SDS011;67981;51.022;-2.870;2023-11-19T03:59:18;25.33;;;3.75;;
78664;SDS011;67981;51.022;-2.870;2023-11-19T04:01:45;10.70;;;3.28;;
78664;SDS011;67981;51.022;-2.870;2023-11-19T04:04:11;12.00;;;3.58;;
78664;SDS011;67981;51.022;-2.870;2023-11-19T04:06:37;18.58;;;3.72;;
78664;SDS011;67981;51.022;-2.870;2023-11-19T04:09:02;11.77;;;3.45;;
78664;SDS011;67981;51.022;-2.870;2023-11-19T04:11:28;17.80;;;5.25;;
78664;SDS011;67981;51.022;-2.870;2023-11-19T04:13:53;15.05;;;3.47;;
78664;SDS011;67981;51.022;-2.870;2023-11-19T04:16:19;13.93;;;3.83;;
78664;SDS011;67981;51.022;-2.870;2023-11-19T04:18:45;13.98;;;3.70;;
78664;SDS011;67981;51.022;-2.870;2023-11-19T04:21:10;10.88;;;3.50;;
78664;SDS011;67981;51.022;-2.870;2023-11-19T04:23:36;17.05;;;4.82;;
78664;SDS011;67981;51.022;-2.870;2023-11-19T04:26:02;12.82;;;3.17;;
78664;SDS011;67981;51.022;-2.870;2023-11-19T04:28:29;10.65;;;4.40;;
78664;SDS011;67981;51.022;-2.870;2023-11-19T04:30:55;12.05;;;3.22;;
78664;SDS011;67981;51.022;-2.870;2023-11-19T04:33:20;14.77;;;3.97;;
78664;SDS011;67981;51.022;-2.870;2023-11-19T04:35:45;13.13;;;3.00;;
78664;SDS011;67981;51.022;-2.870;2023-11-19T04:38:11;14.32;;;3.35;;
78664;SDS011;67981;51.022;-2.870;2023-11-19T04:40:36;10.32;;;1.98;;
78664;SDS011;67981;51.022;-2.870;2023-11-19T04:43:01;8.30;;;2.42;;
78664;SDS011;67981;51.022;-2.870;2023-11-19T04:45:27;8.53;;;2.77;;
78664;SDS011;67981;51.022;-2.870;2023-11-19T04:47:52;12.17;;;3.70;;
78664;SDS011;67981;51.022;-2.870;2023-11-19T04:50:17;14.90;;;3.30;;
78664;SDS011;67981;51.022;-2.870;2023-11-19T04:52:43;7.47;;;2.35;;
78664;SDS011;67981;51.022;-2.870;2023-11-19T04:55:10;13.38;;;3.17;;
78664;SDS011;67981;51.022;-2.870;2023-11-19T04:57:37;17.13;;;2.95;;
78664;SDS011;67981;51.022;-2.870;2023-11-19T05:00:03;15.38;;;3.63;;
78664;SDS011;67981;51.022;-2.870;2023-11-19T05:02:30;12.40;;;2.60;;
78664;SDS011;67981;51.022;-2.870;2023-11-19T05:04:55;11.68;;;3.38;;
78664;SDS011;67981;51.022;-2.870;2023-11-19T05:07:20;9.93;;;3.03;;
78664;SDS011;67981;51.022;-2.870;2023-11-19T05:09:46;14.50;;;3.45;;
78664;SDS011;67981;51.022;-2.870;2023-11-19T05:12:11;13.02;;;2.13;;
78664;SDS011;67981;51.022;-2.870;2023-11-19T05:14:37;10.63;;;3.15;;
78664;SDS011;67981;51.022;-2.870;2023-11-19T05:17:03;16.90;;;3.60;;
78664;SDS011;67981;51.022;-2.870;2023-11-19T05:19:30;11.55;;;3.28;;
78664;SDS011;67981;51.022;-2.870;2023-11-19T05:21:55;14.30;;;3.07;;
78664;SDS011;67981;51.022;-2.870;2023-11-19T05:24:21;10.70;;;2.42;;
78664;SDS011;67981;51.022;-2.870;2023-11-19T05:26:46;13.83;;;3.77;;
78664;SDS011;67981;51.022;-2.870;2023-11-19T05:29:12;10.20;;;3.28;;
78664;SDS011;67981;51.022;-2.870;2023-11-19T05:31:38;12.02;;;3.20;;
78664;SDS011;67981;51.022;-2.870;2023-11-19T05:34:03;15.05;;;3.15;;
78664;SDS011;67981;51.022;-2.870;2023-11-19T05:36:29;16.38;;;3.45;;
78664;SDS011;67981;51.022;-2.870;2023-11-19T05:38:54;12.60;;;4.40;;
78664;SDS011;67981;51.022;-2.870;2023-11-19T05:41:20;13.40;;;3.63;;
78664;SDS011;67981;51.022;-2.870;2023-11-19T05:43:45;14.90;;;3.50;;
78664;SDS011;67981;51.022;-2.870;2023-11-19T05:46:11;15.43;;;4.00;;
78664;SDS011;67981;51.022;-2.870;2023-11-19T05:48:38;9.98;;;3.50;;
78664;SDS011;67981;51.022;-2.870;2023-11-19T05:51:04;18.63;;;3.85;;
78664;SDS011;67981;51.022;-2.870;2023-11-19T05:53:30;8.70;;;2.65;;
78664;SDS011;67981;51.022;-2.870;2023-11-19T05:55:57;17.75;;;3.00;;
78664;SDS011;67981;51.022;-2.870;2023-11-19T05:58:26;16.10;;;3.72;;
78664;SDS011;67981;51.022;-2.870;2023-11-19T06:00:57;11.10;;;2.70;;
78664;SDS011;67981;51.022;-2.870;2023-11-19T06:03:22;10.00;;;3.33;;
78664;SDS011;67981;51.022;-2.870;2023-11-19T06:05:48;16.10;;;4.30;;
78664;SDS011;67981;51.022;-2.870;2023-11-19T06:08:14;10.70;;;2.67;;
78664;SDS011;67981;51.022;-2.870;2023-11-19T06:10:40;16.67;;;4.88;;
78664;SDS011;67981;51.022;-2.870;2023-11-19T06:13:06;9.52;;;2.63;;
78664;SDS011;67981;51.022;-2.870;2023-11-19T06:15:32;18.58;;;3.70;;
78664;SDS011;67981;51.022;-2.870;2023-11-19T06:17:58;14.68;;;3.30;;
78664;SDS011;67981;51.022;-2.870;2023-11-19T06:20:26;14.02;;;2.88;;
78664;SDS011;67981;51.022;-2.870;2023-11-19T06:22:54;14.25;;;2.95;;
78664;SDS011;67981;51.022;-2.870;2023-11-19T06:25:19;9.13;;;3.03;;
78664;SDS011;67981;51.022;-2.870;2023-11-19T06:27:45;13.68;;;3.22;;
78664;SDS011;67981;51.022;-2.870;2023-11-19T06:30:10;11.65;;;3.30;;
78664;SDS011;67981;51.022;-2.870;2023-11-19T06:32:36;19.45;;;4.03;;
78664;SDS011;67981;51.022;-2.870;2023-11-19T06:35:02;14.15;;;3.63;;
78664;SDS011;67981;51.022;-2.870;2023-11-19T06:37:29;13.65;;;3.90;;
78664;SDS011;67981;51.022;-2.870;2023-11-19T06:39:55;9.20;;;2.30;;
78664;SDS011;67981;51.022;-2.870;2023-11-19T06:42:20;12.80;;;3.45;;
78664;SDS011;67981;51.022;-2.870;2023-11-19T06:44:46;20.27;;;5.82;;
78664;SDS011;67981;51.022;-2.870;2023-11-19T06:47:11;13.02;;;3.28;;
78664;SDS011;67981;51.022;-2.870;2023-11-19T06:49:36;14.50;;;4.03;;
78664;SDS011;67981;51.022;-2.870;2023-11-19T06:52:02;14.82;;;3.55;;
78664;SDS011;67981;51.022;-2.870;2023-11-19T06:54:27;13.00;;;3.45;;
78664;SDS011;67981;51.022;-2.870;2023-11-19T06:56:53;13.25;;;3.03;;
78664;SDS011;67981;51.022;-2.870;2023-11-19T06:59:18;15.57;;;3.83;;
78664;SDS011;67981;51.022;-2.870;2023-11-19T07:01:44;12.52;;;3.17;;
78664;SDS011;67981;51.022;-2.870;2023-11-19T07:04:12;10.27;;;3.35;;
78664;SDS011;67981;51.022;-2.870;2023-11-19T07:06:38;14.88;;;3.35;;
78664;SDS011;67981;51.022;-2.870;2023-11-19T07:09:06;14.85;;;3.47;;
78664;SDS011;67981;51.022;-2.870;2023-11-19T07:11:40;15.48;;;5.15;;
78664;SDS011;67981;51.022;-2.870;2023-11-19T07:14:06;17.25;;;3.45;;
78664;SDS011;67981;51.022;-2.870;2023-11-19T07:16:33;20.92;;;3.08;;
78664;SDS011;67981;51.022;-2.870;2023-11-19T07:19:05;15.60;;;4.47;;
78664;SDS011;67981;51.022;-2.870;2023-11-19T07:21:31;17.40;;;2.92;;
78664;SDS011;67981;51.022;-2.870;2023-11-19T07:23:58;11.82;;;3.50;;
78664;SDS011;67981;51.022;-2.870;2023-11-19T07:26:24;14.70;;;3.53;;
78664;SDS011;67981;51.022;-2.870;2023-11-19T07:28:49;14.20;;;3.45;;
78664;SDS011;67981;51.022;-2.870;2023-11-19T07:31:15;14.38;;;3.67;;
78664;SDS011;67981;51.022;-2.870;2023-11-19T07:33:41;15.48;;;4.35;;
78664;SDS011;67981;51.022;-2.870;2023-11-19T07:36:09;11.88;;;2.53;;
78664;SDS011;67981;51.022;-2.870;2023-11-19T07:38:36;11.90;;;3.05;;
78664;SDS011;67981;51.022;-2.870;2023-11-19T07:41:02;16.73;;;4.35;;
78664;SDS011;67981;51.022;-2.870;2023-11-19T07:43:27;12.60;;;3.10;;
78664;SDS011;67981;51.022;-2.870;2023-11-19T07:45:53;20.08;;;5.25;;
78664;SDS011;67981;51.022;-2.870;2023-11-19T07:48:18;15.60;;;4.20;;
78664;SDS011;67981;51.022;-2.870;2023-11-19T07:50:48;17.60;;;4.32;;
78664;SDS011;67981;51.022;-2.870;2023-11-19T07:53:17;7.40;;;2.70;;
78664;SDS011;67981;51.022;-2.870;2023-11-19T07:55:42;16.80;;;3.75;;
78664;SDS011;67981;51.022;-2.870;2023-11-19T07:58:09;18.95;;;3.97;;
78664;SDS011;67981;51.022;-2.870;2023-11-19T08:00:35;15.20;;;3.85;;
78664;SDS011;67981;51.022;-2.870;2023-11-19T08:03:00;16.77;;;4.83;;
78664;SDS011;67981;51.022;-2.870;2023-11-19T08:05:26;15.60;;;3.60;;
78664;SDS011;67981;51.022;-2.870;2023-11-19T08:07:51;16.63;;;3.60;;
78664;SDS011;67981;51.022;-2.870;2023-11-19T08:10:18;9.82;;;3.55;;
78664;SDS011;67981;51.022;-2.870;2023-11-19T08:12:44;18.98;;;4.50;;
78664;SDS011;67981;51.022;-2.870;2023-11-19T08:15:09;17.00;;;4.05;;
78664;SDS011;67981;51.022;-2.870;2023-11-19T08:17:35;13.88;;;3.33;;
78664;SDS011;67981;51.022;-2.870;2023-11-19T08:20:01;10.48;;;2.67;;
78664;SDS011;67981;51.022;-2.870;2023-11-19T08:22:26;14.15;;;2.78;;
78664;SDS011;67981;51.022;-2.870;2023-11-19T08:24:52;13.53;;;3.30;;
78664;SDS011;67981;51.022;-2.870;2023-11-19T08:27:17;11.03;;;2.83;;
78664;SDS011;67981;51.022;-2.870;2023-11-19T08:29:43;13.27;;;3.40;;
78664;SDS011;67981;51.022;-2.870;2023-11-19T08:32:08;11.23;;;3.10;;
78664;SDS011;67981;51.022;-2.870;2023-11-19T08:34:33;12.20;;;3.92;;
78664;SDS011;67981;51.022;-2.870;2023-11-19T08:36:59;10.15;;;2.35;;
78664;SDS011;67981;51.022;-2.870;2023-11-19T08:39:25;11.63;;;3.30;;
78664;SDS011;67981;51.022;-2.870;2023-11-19T08:41:50;13.98;;;2.92;;
78664;SDS011;67981;51.022;-2.870;2023-11-19T08:44:16;5.90;;;2.22;;
78664;SDS011;67981;51.022;-2.870;2023-11-19T08:46:50;13.75;;;4.00;;
78664;SDS011;67981;51.022;-2.870;2023-11-19T08:49:16;12.10;;;2.60;;
78664;SDS011;67981;51.022;-2.870;2023-11-19T08:51:41;11.68;;;2.85;;
78664;SDS011;67981;51.022;-2.870;2023-11-19T08:54:07;11.23;;;2.80;;
78664;SDS011;67981;51.022;-2.870;2023-11-19T08:56:32;14.88;;;3.00;;
78664;SDS011;67981;51.022;-2.870;2023-11-19T08:58:59;6.90;;;2.60;;
78664;SDS011;67981;51.022;-2.870;2023-11-19T09:01:25;10.23;;;4.85;;
78664;SDS011;67981;51.022;-2.870;2023-11-19T09:03:50;14.27;;;3.20;;
78664;SDS011;67981;51.022;-2.870;2023-11-19T09:06:16;9.30;;;2.55;;
78664;SDS011;67981;51.022;-2.870;2023-11-19T09:08:42;10.35;;;2.53;;
78664;SDS011;67981;51.022;-2.870;2023-11-19T09:11:08;7.25;;;2.78;;
78664;SDS011;67981;51.022;-2.870;2023-11-19T09:13:36;9.48;;;2.28;;
78664;SDS011;67981;51.022;-2.870;2023-11-19T09:16:02;10.02;;;2.13;;
78664;SDS011;67981;51.022;-2.870;2023-11-19T09:18:31;15.88;;;3.08;;
78664;SDS011;67981;51.022;-2.870;2023-11-19T09:20:57;6.68;;;2.28;;
78664;SDS011;67981;51.022;-2.870;2023-11-19T09:23:23;12.73;;;2.72;;
78664;SDS011;67981;51.022;-2.870;2023-11-19T09:25:50;8.50;;;3.20;;
78664;SDS011;67981;51.022;-2.870;2023-11-19T09:28:15;13.27;;;3.40;;
78664;SDS011;67981;51.022;-2.870;2023-11-19T09:30:40;10.52;;;2.17;;
78664;SDS011;67981;51.022;-2.870;2023-11-19T09:33:06;8.00;;;2.15;;
78664;SDS011;67981;51.022;-2.870;2023-11-19T09:35:31;18.38;;;3.90;;
78664;SDS011;67981;51.022;-2.870;2023-11-19T09:37:57;9.18;;;2.25;;
78664;SDS011;67981;51.022;-2.870;2023-11-19T09:40:22;10.32;;;3.00;;
78664;SDS011;67981;51.022;-2.870;2023-11-19T09:42:48;10.48;;;2.45;;
78664;SDS011;67981;51.022;-2.870;2023-11-19T09:45:15;8.13;;;2.15;;
78664;SDS011;67981;51.022;-2.870;2023-11-19T09:47:43;11.60;;;3.08;;
78664;SDS011;67981;51.022;-2.870;2023-11-19T09:50:10;10.75;;;2.63;;
78664;SDS011;67981;51.022;-2.870;2023-11-19T09:52:41;4.43;;;1.75;;
78664;SDS011;67981;51.022;-2.870;2023-11-19T09:55:06;9.00;;;2.78;;
78664;SDS011;67981;51.022;-2.870;2023-11-19T09:57:32;7.50;;;2.50;;
78664;SDS011;67981;51.022;-2.870;2023-11-19T10:00:02;7.93;;;2.75;;
78664;SDS011;67981;51.022;-2.870;2023-11-19T10:02:29;11.18;;;3.25;;
78664;SDS011;67981;51.022;-2.870;2023-11-19T10:04:58;12.27;;;2.53;;
78664;SDS011;67981;51.022;-2.870;2023-11-19T10:07:28;11.88;;;2.63;;
78664;SDS011;67981;51.022;-2.870;2023-11-19T10:09:53;4.88;;;1.95;;
78664;SDS011;67981;51.022;-2.870;2023-11-19T10:12:18;8.13;;;1.95;;
78664;SDS011;67981;51.022;-2.870;2023-11-19T10:14:44;9.82;;;2.40;;
78664;SDS011;67981;51.022;-2.870;2023-11-19T10:17:11;11.18;;;2.60;;
78664;SDS011;67981;51.022;-2.870;2023-11-19T10:19:36;8.98;;;1.85;;
78664;SDS011;67981;51.022;-2.870;2023-11-19T10:22:05;13.00;;;2.88;;
78664;SDS011;67981;51.022;-2.870;2023-11-19T10:24:31;7.50;;;2.10;;
78664;SDS011;67981;51.022;-2.870;2023-11-19T10:26:58;8.15;;;2.10;;
78664;SDS011;67981;51.022;-2.870;2023-11-19T10:29:24;6.38;;;2.60;;
78664;SDS011;67981;51.022;-2.870;2023-11-19T10:31:56;7.85;;;2.10;;
78664;SDS011;67981;51.022;-2.870;2023-11-19T10:34:25;4.65;;;1.75;;
78664;SDS011;67981;51.022;-2.870;2023-11-19T10:36:52;6.18;;;2.60;;
78664;SDS011;67981;51.022;-2.870;2023-11-19T10:39:17;5.78;;;1.88;;
78664;SDS011;67981;51.022;-2.870;2023-11-19T10:41:43;9.48;;;2.88;;
78664;SDS011;67981;51.022;-2.870;2023-11-19T10:44:08;8.02;;;2.67;;
78664;SDS011;67981;51.022;-2.870;2023-11-19T10:46:38;5.47;;;1.80;;
78664;SDS011;67981;51.022;-2.870;2023-11-19T10:49:08;9.63;;;2.25;;
78664;SDS011;67981;51.022;-2.870;2023-11-19T10:51:34;15.90;;;2.50;;
78664;SDS011;67981;51.022;-2.870;2023-11-19T10:54:04;8.27;;;3.08;;
78664;SDS011;67981;51.022;-2.870;2023-11-19T10:56:31;9.13;;;2.00;;
78664;SDS011;67981;51.022;-2.870;2023-11-19T10:58:58;9.00;;;3.30;;
78664;SDS011;67981;51.022;-2.870;2023-11-19T11:01:33;5.07;;;1.55;;
78664;SDS011;67981;51.022;-2.870;2023-11-19T11:04:03;3.90;;;1.15;;
78664;SDS011;67981;51.022;-2.870;2023-11-19T11:06:36;3.85;;;1.85;;
78664;SDS011;67981;51.022;-2.870;2023-11-19T11:09:02;4.63;;;1.75;;
78664;SDS011;67981;51.022;-2.870;2023-11-19T11:11:27;3.83;;;1.50;;
78664;SDS011;67981;51.022;-2.870;2023-11-19T11:13:53;7.15;;;2.15;;
78664;SDS011;67981;51.022;-2.870;2023-11-19T11:16:21;7.07;;;2.15;;
78664;SDS011;67981;51.022;-2.870;2023-11-19T11:18:48;5.00;;;1.60;;
78664;SDS011;67981;51.022;-2.870;2023-11-19T11:21:16;7.55;;;1.85;;
78664;SDS011;67981;51.022;-2.870;2023-11-19T11:37:46;2.67;;;1.15;;
78664;SDS011;67981;51.022;-2.870;2023-11-19T11:40:18;2.92;;;1.45;;
78664;SDS011;67981;51.022;-2.870;2023-11-19T11:42:44;6.07;;;1.67;;
78664;SDS011;67981;51.022;-2.870;2023-11-19T11:45:10;3.53;;;1.27;;
78664;SDS011;67981;51.022;-2.870;2023-11-19T11:50:10;3.13;;;1.67;;
78664;SDS011;67981;51.022;-2.870;2023-11-19T11:53:13;4.00;;;1.33;;
78664;SDS011;67981;51.022;-2.870;2023-11-19T11:58:01;2.13;;;0.73;;
78664;SDS011;67981;51.022;-2.870;2023-11-19T12:00:29;3.25;;;1.75;;
78664;SDS011;67981;51.022;-2.870;2023-11-19T12:02:55;5.03;;;1.30;;
78664;SDS011;67981;51.022;-2.870;2023-11-19T12:05:22;1.83;;;1.23;;
78664;SDS011;67981;51.022;-2.870;2023-11-19T12:07:58;4.97;;;1.00;;
78664;SDS011;67981;51.022;-2.870;2023-11-19T12:10:26;3.35;;;1.55;;
78664;SDS011;67981;51.022;-2.870;2023-11-19T12:12:59;1.63;;;0.85;;
78664;SDS011;67981;51.022;-2.870;2023-11-19T12:15:26;5.07;;;2.05;;
78664;SDS011;67981;51.022;-2.870;2023-11-19T12:17:53;1.33;;;0.70;;
78664;SDS011;67981;51.022;-2.870;2023-11-19T12:20:22;3.40;;;1.50;;
78664;SDS011;67981;51.022;-2.870;2023-11-19T12:22:49;3.45;;;1.30;;
78664;SDS011;67981;51.022;-2.870;2023-11-19T12:25:16;6.68;;;1.20;;
78664;SDS011;67981;51.022;-2.870;2023-11-19T12:27:46;2.75;;;1.10;;
78664;SDS011;67981;51.022;-2.870;2023-11-19T12:30:16;4.72;;;1.85;;
78664;SDS011;67981;51.022;-2.870;2023-11-19T12:32:46;2.05;;;1.17;;
78664;SDS011;67981;51.022;-2.870;2023-11-19T12:35:12;3.25;;;1.20;;
78664;SDS011;67981;51.022;-2.870;2023-11-19T12:37:44;3.13;;;1.08;;
78664;SDS011;67981;51.022;-2.870;2023-11-19T12:40:14;4.22;;;1.20;;
78664;SDS011;67981;51.022;-2.870;2023-11-19T12:42:42;4.28;;;0.80;;
78664;SDS011;67981;51.022;-2.870;2023-11-19T12:45:08;1.48;;;0.85;;
78664;SDS011;67981;51.022;-2.870;2023-11-19T12:47:35;3.03;;;1.30;;
78664;SDS011;67981;51.022;-2.870;2023-11-19T12:50:02;10.65;;;1.42;;
78664;SDS011;67981;51.022;-2.870;2023-11-19T12:52:28;1.95;;;1.08;;
78664;SDS011;67981;51.022;-2.870;2023-11-19T12:54:53;2.72;;;0.88;;
78664;SDS011;67981;51.022;-2.870;2023-11-19T12:57:19;3.80;;;1.47;;
78664;SDS011;67981;51.022;-2.870;2023-11-19T12:59:56;6.38;;;1.48;;
78664;SDS011;67981;51.022;-2.870;2023-11-19T13:02:21;3.60;;;0.93;;
78664;SDS011;67981;51.022;-2.870;2023-11-19T13:04:48;2.80;;;0.80;;
78664;SDS011;67981;51.022;-2.870;2023-11-19T13:07:14;3.45;;;1.10;;
78664;SDS011;67981;51.022;-2.870;2023-11-19T13:09:45;3.45;;;1.00;;
78664;SDS011;67981;51.022;-2.870;2023-11-19T13:12:12;4.53;;;1.38;;
78664;SDS011;67981;51.022;-2.870;2023-11-19T13:14:39;2.20;;;1.10;;
78664;SDS011;67981;51.022;-2.870;2023-11-19T13:17:07;4.40;;;1.17;;
78664;SDS011;67981;51.022;-2.870;2023-11-19T13:19:32;1.13;;;0.82;;
78664;SDS011;67981;51.022;-2.870;2023-11-19T13:21:57;1.73;;;0.65;;
78664;SDS011;67981;51.022;-2.870;2023-11-19T13:24:23;5.47;;;1.17;;
78664;SDS011;67981;51.022;-2.870;2023-11-19T13:26:48;3.92;;;2.15;;
78664;SDS011;67981;51.022;-2.870;2023-11-19T13:29:13;6.03;;;1.03;;
78664;SDS011;67981;51.022;-2.870;2023-11-19T13:31:39;6.15;;;1.55;;
78664;SDS011;67981;51.022;-2.870;2023-11-19T13:34:05;3.20;;;1.60;;
78664;SDS011;67981;51.022;-2.870;2023-11-19T13:36:32;2.80;;;1.52;;
78664;SDS011;67981;51.022;-2.870;2023-11-19T13:38:57;7.32;;;1.70;;
78664;SDS011;67981;51.022;-2.870;2023-11-19T13:41:24;6.10;;;2.70;;
78664;SDS011;67981;51.022;-2.870;2023-11-19T13:43:52;5.28;;;2.65;;
78664;SDS011;67981;51.022;-2.870;2023-11-19T13:46:18;7.43;;;2.10;;
78664;SDS011;67981;51.022;-2.870;2023-11-19T13:48:43;4.77;;;1.67;;
78664;SDS011;67981;51.022;-2.870;2023-11-19T13:51:09;7.03;;;2.00;;
78664;SDS011;67981;51.022;-2.870;2023-11-19T13:53:35;8.25;;;2.83;;
78664;SDS011;67981;51.022;-2.870;2023-11-19T13:56:00;6.75;;;2.42;;
78664;SDS011;67981;51.022;-2.870;2023-11-19T13:58:26;12.18;;;3.25;;
78664;SDS011;67981;51.022;-2.870;2023-11-19T14:00:51;9.63;;;2.58;;
78664;SDS011;67981;51.022;-2.870;2023-11-19T14:03:16;5.60;;;2.10;;
78664;SDS011;67981;51.022;-2.870;2023-11-19T14:05:42;12.07;;;3.40;;
78664;SDS011;67981;51.022;-2.870;2023-11-19T14:08:07;4.10;;;2.05;;
78664;SDS011;67981;51.022;-2.870;2023-11-19T14:10:39;9.77;;;2.30;;
78664;SDS011;67981;51.022;-2.870;2023-11-19T14:13:07;5.10;;;1.90;;
78664;SDS011;67981;51.022;-2.870;2023-11-19T14:15:33;11.93;;;2.67;;
78664;SDS011;67981;51.022;-2.870;2023-11-19T14:17:59;7.45;;;2.33;;
78664;SDS011;67981;51.022;-2.870;2023-11-19T14:20:24;3.10;;;1.40;;
78664;SDS011;67981;51.022;-2.870;2023-11-19T14:22:50;6.68;;;1.67;;
78664;SDS011;67981;51.022;-2.870;2023-11-19T14:25:17;6.93;;;1.80;;
78664;SDS011;67981;51.022;-2.870;2023-11-19T14:27:44;6.20;;;1.33;;
78664;SDS011;67981;51.022;-2.870;2023-11-19T14:30:11;5.15;;;1.73;;
78664;SDS011;67981;51.022;-2.870;2023-11-19T14:32:41;5.32;;;1.73;;
78664;SDS011;67981;51.022;-2.870;2023-11-19T14:37:35;4.97;;;2.10;;
78664;SDS011;67981;51.022;-2.870;2023-11-19T14:40:00;7.97;;;1.95;;
78664;SDS011;67981;51.022;-2.870;2023-11-19T14:42:29;9.80;;;2.42;;
78664;SDS011;67981;51.022;-2.870;2023-11-19T14:44:54;5.53;;;2.10;;
78664;SDS011;67981;51.022;-2.870;2023-11-19T14:47:20;9.02;;;2.75;;
78664;SDS011;67981;51.022;-2.870;2023-11-19T14:49:46;6.05;;;2.05;;